sensor_id;sensor_type;location;lat;lon;timestamp;P1;durP1;ratioP1;P2;durP2;ratioP2
30723;SDS011;17473;52.286;20.930;2023-06-22T00:00:22;23.70;;;20.52;;
30723;SDS011;17473;52.286;20.930;2023-06-22T00:02:49;29.38;;;21.77;;
30723;SDS011;17473;52.286;20.930;2023-06-22T00:05:16;23.90;;;21.35;;
30723;SDS011;17473;52.286;20.930;2023-06-22T00:07:43;32.38;;;21.90;;
30723;SDS011;17473;52.286;20.930;2023-06-22T00:10:10;23.60;;;20.85;;
30723;SDS011;17473;52.286;20.930;2023-06-22T00:12:38;23.08;;;20.48;;
30723;SDS011;17473;52.286;20.930;2023-06-22T00:15:05;23.40;;;19.80;;
30723;SDS011;17473;52.286;20.930;2023-06-22T00:17:32;28.75;;;20.92;;
30723;SDS011;17473;52.286;20.930;2023-06-22T00:20:00;27.13;;;21.10;;
30723;SDS011;17473;52.286;20.930;2023-06-22T00:22:27;22.73;;;19.70;;
30723;SDS011;17473;52.286;20.930;2023-06-22T00:24:55;22.83;;;20.48;;
30723;SDS011;17473;52.286;20.930;2023-06-22T00:27:23;25.63;;;21.70;;
30723;SDS011;17473;52.286;20.930;2023-06-22T00:29:50;24.55;;;19.75;;
30723;SDS011;17473;52.286;20.930;2023-06-22T00:32:18;23.42;;;20.88;;
30723;SDS011;17473;52.286;20.930;2023-06-22T00:34:45;26.52;;;22.08;;
30723;SDS011;17473;52.286;20.930;2023-06-22T00:37:12;25.50;;;21.33;;
30723;SDS011;17473;52.286;20.930;2023-06-22T00:39:40;23.95;;;20.67;;
30723;SDS011;17473;52.286;20.930;2023-06-22T00:42:07;24.48;;;21.50;;
30723;SDS011;17473;52.286;20.930;2023-06-22T00:44:37;22.45;;;19.95;;
30723;SDS011;17473;52.286;20.930;2023-06-22T00:47:05;27.92;;;20.85;;
30723;SDS011;17473;52.286;20.930;2023-06-22T00:49:33;26.20;;;20.60;;
30723;SDS011;17473;52.286;20.930;2023-06-22T00:52:00;24.45;;;21.67;;
30723;SDS011;17473;52.286;20.930;2023-06-22T00:54:28;25.00;;;20.92;;
30723;SDS011;17473;52.286;20.930;2023-06-22T00:56:56;27.23;;;21.60;;
30723;SDS011;17473;52.286;20.930;2023-06-22T00:59:24;25.35;;;20.67;;
30723;SDS011;17473;52.286;20.930;2023-06-22T01:01:53;25.40;;;22.20;;
30723;SDS011;17473;52.286;20.930;2023-06-22T01:04:24;24.80;;;20.98;;
30723;SDS011;17473;52.286;20.930;2023-06-22T01:09:35;24.60;;;21.77;;
30723;SDS011;17473;52.286;20.930;2023-06-22T01:12:32;26.35;;;22.10;;
30723;SDS011;17473;52.286;20.930;2023-06-22T01:18:01;25.10;;;22.40;;
30723;SDS011;17473;52.286;20.930;2023-06-22T01:20:32;24.48;;;21.27;;
30723;SDS011;17473;52.286;20.930;2023-06-22T01:23:05;25.85;;;21.83;;
30723;SDS011;17473;52.286;20.930;2023-06-22T01:31:20;30.02;;;21.58;;
30723;SDS011;17473;52.286;20.930;2023-06-22T01:33:53;27.67;;;23.55;;
30723;SDS011;17473;52.286;20.930;2023-06-22T01:36:27;23.98;;;21.40;;
30723;SDS011;17473;52.286;20.930;2023-06-22T01:38:55;26.05;;;21.60;;
30723;SDS011;17473;52.286;20.930;2023-06-22T01:41:25;26.65;;;22.10;;
30723;SDS011;17473;52.286;20.930;2023-06-22T01:43:55;23.38;;;20.88;;
30723;SDS011;17473;52.286;20.930;2023-06-22T01:46:23;25.40;;;22.65;;
30723;SDS011;17473;52.286;20.930;2023-06-22T01:48:51;25.20;;;22.40;;
30723;SDS011;17473;52.286;20.930;2023-06-22T01:51:19;29.15;;;22.38;;
30723;SDS011;17473;52.286;20.930;2023-06-22T01:53:47;24.58;;;22.05;;
30723;SDS011;17473;52.286;20.930;2023-06-22T01:56:16;25.23;;;22.42;;
30723;SDS011;17473;52.286;20.930;2023-06-22T01:59:04;27.30;;;22.25;;
30723;SDS011;17473;52.286;20.930;2023-06-22T02:01:44;25.35;;;21.85;;
30723;SDS011;17473;52.286;20.930;2023-06-22T02:04:21;25.20;;;22.05;;
30723;SDS011;17473;52.286;20.930;2023-06-22T02:06:56;31.83;;;23.67;;
30723;SDS011;17473;52.286;20.930;2023-06-22T02:09:26;29.50;;;25.65;;
30723;SDS011;17473;52.286;20.930;2023-06-22T02:11:56;30.98;;;26.10;;
30723;SDS011;17473;52.286;20.930;2023-06-22T02:14:26;31.58;;;26.90;;
30723;SDS011;17473;52.286;20.930;2023-06-22T02:16:55;30.92;;;25.70;;
30723;SDS011;17473;52.286;20.930;2023-06-22T02:19:26;29.52;;;26.38;;
30723;SDS011;17473;52.286;20.930;2023-06-22T02:21:53;32.75;;;27.63;;
30723;SDS011;17473;52.286;20.930;2023-06-22T02:24:20;30.30;;;26.95;;
30723;SDS011;17473;52.286;20.930;2023-06-22T02:26:49;36.65;;;29.35;;
30723;SDS011;17473;52.286;20.930;2023-06-22T02:29:17;34.25;;;28.60;;
30723;SDS011;17473;52.286;20.930;2023-06-22T02:31:44;32.65;;;29.15;;
30723;SDS011;17473;52.286;20.930;2023-06-22T02:34:11;36.58;;;30.58;;
30723;SDS011;17473;52.286;20.930;2023-06-22T02:36:45;35.60;;;31.58;;
30723;SDS011;17473;52.286;20.930;2023-06-22T02:39:21;38.97;;;31.55;;
30723;SDS011;17473;52.286;20.930;2023-06-22T02:41:53;41.40;;;30.90;;
30723;SDS011;17473;52.286;20.930;2023-06-22T02:44:21;36.97;;;31.55;;
30723;SDS011;17473;52.286;20.930;2023-06-22T02:46:48;37.17;;;32.83;;
30723;SDS011;17473;52.286;20.930;2023-06-22T02:49:16;42.58;;;33.78;;
30723;SDS011;17473;52.286;20.930;2023-06-22T02:51:46;46.80;;;33.55;;
30723;SDS011;17473;52.286;20.930;2023-06-22T02:54:15;45.78;;;34.78;;
30723;SDS011;17473;52.286;20.930;2023-06-22T02:56:43;43.47;;;34.33;;
30723;SDS011;17473;52.286;20.930;2023-06-22T02:59:10;42.75;;;34.35;;
30723;SDS011;17473;52.286;20.930;2023-06-22T03:01:37;42.15;;;33.70;;
30723;SDS011;17473;52.286;20.930;2023-06-22T03:04:07;41.70;;;34.13;;
30723;SDS011;17473;52.286;20.930;2023-06-22T03:06:35;44.15;;;36.08;;
30723;SDS011;17473;52.286;20.930;2023-06-22T03:09:03;44.78;;;34.58;;
30723;SDS011;17473;52.286;20.930;2023-06-22T03:11:32;42.85;;;34.85;;
30723;SDS011;17473;52.286;20.930;2023-06-22T03:14:00;44.85;;;33.28;;
30723;SDS011;17473;52.286;20.930;2023-06-22T03:16:28;41.97;;;34.15;;
30723;SDS011;17473;52.286;20.930;2023-06-22T03:18:55;42.72;;;33.97;;
30723;SDS011;17473;52.286;20.930;2023-06-22T03:21:23;40.58;;;33.67;;
30723;SDS011;17473;52.286;20.930;2023-06-22T03:23:50;44.53;;;33.78;;
30723;SDS011;17473;52.286;20.930;2023-06-22T03:26:17;41.58;;;33.85;;
30723;SDS011;17473;52.286;20.930;2023-06-22T03:28:45;42.00;;;33.13;;
30723;SDS011;17473;52.286;20.930;2023-06-22T03:31:13;45.28;;;35.08;;
30723;SDS011;17473;52.286;20.930;2023-06-22T03:33:40;38.97;;;32.70;;
30723;SDS011;17473;52.286;20.930;2023-06-22T03:36:07;37.60;;;31.95;;
30723;SDS011;17473;52.286;20.930;2023-06-22T03:38:35;38.17;;;32.47;;
30723;SDS011;17473;52.286;20.930;2023-06-22T03:41:02;41.35;;;33.05;;
30723;SDS011;17473;52.286;20.930;2023-06-22T03:43:29;43.92;;;35.10;;
30723;SDS011;17473;52.286;20.930;2023-06-22T03:45:56;49.17;;;33.40;;
30723;SDS011;17473;52.286;20.930;2023-06-22T03:48:23;39.90;;;32.55;;
30723;SDS011;17473;52.286;20.930;2023-06-22T03:50:50;38.95;;;32.78;;
30723;SDS011;17473;52.286;20.930;2023-06-22T03:53:17;47.08;;;32.90;;
30723;SDS011;17473;52.286;20.930;2023-06-22T03:55:48;43.53;;;33.28;;
30723;SDS011;17473;52.286;20.930;2023-06-22T03:58:19;38.33;;;33.03;;
30723;SDS011;17473;52.286;20.930;2023-06-22T04:00:48;48.45;;;34.60;;
30723;SDS011;17473;52.286;20.930;2023-06-22T04:03:19;39.92;;;32.97;;
30723;SDS011;17473;52.286;20.930;2023-06-22T04:05:47;39.13;;;32.95;;
30723;SDS011;17473;52.286;20.930;2023-06-22T04:08:15;37.55;;;32.00;;
30723;SDS011;17473;52.286;20.930;2023-06-22T04:10:42;39.72;;;31.60;;
30723;SDS011;17473;52.286;20.930;2023-06-22T04:13:10;37.25;;;31.40;;
30723;SDS011;17473;52.286;20.930;2023-06-22T04:15:37;40.58;;;31.98;;
30723;SDS011;17473;52.286;20.930;2023-06-22T04:18:04;40.42;;;30.00;;
30723;SDS011;17473;52.286;20.930;2023-06-22T04:20:31;42.22;;;29.85;;
30723;SDS011;17473;52.286;20.930;2023-06-22T04:22:59;32.97;;;29.10;;
30723;SDS011;17473;52.286;20.930;2023-06-22T04:25:26;32.72;;;28.05;;
30723;SDS011;17473;52.286;20.930;2023-06-22T04:27:54;33.25;;;27.08;;
30723;SDS011;17473;52.286;20.930;2023-06-22T04:30:21;35.67;;;28.83;;
30723;SDS011;17473;52.286;20.930;2023-06-22T04:32:48;33.00;;;27.48;;
30723;SDS011;17473;52.286;20.930;2023-06-22T04:35:23;34.83;;;28.73;;
30723;SDS011;17473;52.286;20.930;2023-06-22T04:37:52;33.58;;;27.85;;
30723;SDS011;17473;52.286;20.930;2023-06-22T04:40:23;33.50;;;27.05;;
30723;SDS011;17473;52.286;20.930;2023-06-22T04:42:50;33.00;;;26.85;;
30723;SDS011;17473;52.286;20.930;2023-06-22T04:45:20;36.22;;;26.98;;
30723;SDS011;17473;52.286;20.930;2023-06-22T04:47:48;36.38;;;26.52;;
30723;SDS011;17473;52.286;20.930;2023-06-22T04:50:16;32.28;;;27.50;;
30723;SDS011;17473;52.286;20.930;2023-06-22T04:52:44;38.25;;;25.92;;
30723;SDS011;17473;52.286;20.930;2023-06-22T04:55:12;35.72;;;26.45;;
30723;SDS011;17473;52.286;20.930;2023-06-22T04:57:41;34.13;;;25.98;;
30723;SDS011;17473;52.286;20.930;2023-06-22T05:00:11;32.90;;;24.23;;
30723;SDS011;17473;52.286;20.930;2023-06-22T05:02:39;33.38;;;25.42;;
30723;SDS011;17473;52.286;20.930;2023-06-22T05:05:07;32.85;;;24.75;;
30723;SDS011;17473;52.286;20.930;2023-06-22T05:07:35;30.48;;;24.55;;
30723;SDS011;17473;52.286;20.930;2023-06-22T05:10:03;32.85;;;24.02;;
30723;SDS011;17473;52.286;20.930;2023-06-22T05:12:31;27.88;;;22.95;;
30723;SDS011;17473;52.286;20.930;2023-06-22T05:14:58;26.95;;;23.05;;
30723;SDS011;17473;52.286;20.930;2023-06-22T05:17:26;27.67;;;22.40;;
30723;SDS011;17473;52.286;20.930;2023-06-22T05:19:53;34.50;;;23.08;;
30723;SDS011;17473;52.286;20.930;2023-06-22T05:22:21;26.13;;;21.67;;
30723;SDS011;17473;52.286;20.930;2023-06-22T05:24:48;28.38;;;22.05;;
30723;SDS011;17473;52.286;20.930;2023-06-22T05:27:15;27.67;;;20.77;;
30723;SDS011;17473;52.286;20.930;2023-06-22T05:29:43;26.08;;;22.17;;
30723;SDS011;17473;52.286;20.930;2023-06-22T05:32:10;32.63;;;21.27;;
30723;SDS011;17473;52.286;20.930;2023-06-22T05:34:38;33.10;;;24.58;;
30723;SDS011;17473;52.286;20.930;2023-06-22T05:37:05;30.13;;;23.60;;
30723;SDS011;17473;52.286;20.930;2023-06-22T05:39:32;30.58;;;19.40;;
30723;SDS011;17473;52.286;20.930;2023-06-22T05:42:00;25.08;;;20.88;;
30723;SDS011;17473;52.286;20.930;2023-06-22T05:44:27;24.10;;;19.60;;
30723;SDS011;17473;52.286;20.930;2023-06-22T05:46:54;24.80;;;19.65;;
30723;SDS011;17473;52.286;20.930;2023-06-22T05:49:21;22.95;;;18.75;;
30723;SDS011;17473;52.286;20.930;2023-06-22T05:51:49;33.75;;;18.15;;
30723;SDS011;17473;52.286;20.930;2023-06-22T05:54:17;24.05;;;19.15;;
30723;SDS011;17473;52.286;20.930;2023-06-22T05:56:44;38.17;;;27.92;;
30723;SDS011;17473;52.286;20.930;2023-06-22T05:59:11;38.20;;;26.40;;
30723;SDS011;17473;52.286;20.930;2023-06-22T06:01:38;47.85;;;28.75;;
30723;SDS011;17473;52.286;20.930;2023-06-22T06:04:06;25.52;;;19.48;;
30723;SDS011;17473;52.286;20.930;2023-06-22T06:06:34;24.80;;;18.77;;
30723;SDS011;17473;52.286;20.930;2023-06-22T06:09:04;23.58;;;17.00;;
30723;SDS011;17473;52.286;20.930;2023-06-22T06:11:31;21.67;;;17.20;;
30723;SDS011;17473;52.286;20.930;2023-06-22T06:13:58;20.73;;;16.42;;
30723;SDS011;17473;52.286;20.930;2023-06-22T06:16:26;20.98;;;15.52;;
30723;SDS011;17473;52.286;20.930;2023-06-22T06:18:53;22.77;;;15.93;;
30723;SDS011;17473;52.286;20.930;2023-06-22T06:21:22;18.75;;;15.23;;
30723;SDS011;17473;52.286;20.930;2023-06-22T06:23:54;18.23;;;15.50;;
30723;SDS011;17473;52.286;20.930;2023-06-22T06:26:21;19.58;;;14.27;;
30723;SDS011;17473;52.286;20.930;2023-06-22T06:28:55;17.77;;;14.38;;
30723;SDS011;17473;52.286;20.930;2023-06-22T06:31:23;18.08;;;13.93;;
30723;SDS011;17473;52.286;20.930;2023-06-22T06:33:51;17.23;;;13.60;;
30723;SDS011;17473;52.286;20.930;2023-06-22T06:36:18;18.80;;;13.68;;
30723;SDS011;17473;52.286;20.930;2023-06-22T06:38:45;18.55;;;13.00;;
30723;SDS011;17473;52.286;20.930;2023-06-22T06:41:14;16.30;;;13.65;;
30723;SDS011;17473;52.286;20.930;2023-06-22T06:43:42;18.35;;;12.68;;
30723;SDS011;17473;52.286;20.930;2023-06-22T06:46:09;18.30;;;12.90;;
30723;SDS011;17473;52.286;20.930;2023-06-22T06:48:37;15.70;;;12.95;;
30723;SDS011;17473;52.286;20.930;2023-06-22T06:51:04;18.90;;;11.80;;
30723;SDS011;17473;52.286;20.930;2023-06-22T06:53:36;14.55;;;11.13;;
30723;SDS011;17473;52.286;20.930;2023-06-22T06:56:04;15.13;;;11.50;;
30723;SDS011;17473;52.286;20.930;2023-06-22T06:58:31;13.15;;;11.63;;
30723;SDS011;17473;52.286;20.930;2023-06-22T07:00:59;20.67;;;10.77;;
30723;SDS011;17473;52.286;20.930;2023-06-22T07:03:26;18.13;;;10.30;;
30723;SDS011;17473;52.286;20.930;2023-06-22T07:05:53;17.55;;;9.85;;
30723;SDS011;17473;52.286;20.930;2023-06-22T07:08:20;10.13;;;9.13;;
30723;SDS011;17473;52.286;20.930;2023-06-22T07:10:47;10.82;;;8.20;;
30723;SDS011;17473;52.286;20.930;2023-06-22T07:13:14;11.07;;;8.85;;
30723;SDS011;17473;52.286;20.930;2023-06-22T07:15:41;12.75;;;8.55;;
30723;SDS011;17473;52.286;20.930;2023-06-22T07:18:09;13.68;;;8.65;;
30723;SDS011;17473;52.286;20.930;2023-06-22T07:20:36;9.82;;;8.45;;
30723;SDS011;17473;52.286;20.930;2023-06-22T07:23:03;12.45;;;7.78;;
30723;SDS011;17473;52.286;20.930;2023-06-22T07:25:30;10.48;;;7.50;;
30723;SDS011;17473;52.286;20.930;2023-06-22T07:28:04;10.55;;;7.00;;
30723;SDS011;17473;52.286;20.930;2023-06-22T07:30:33;7.05;;;6.35;;
30723;SDS011;17473;52.286;20.930;2023-06-22T07:33:01;8.48;;;6.05;;
30723;SDS011;17473;52.286;20.930;2023-06-22T07:35:31;15.48;;;7.55;;
30723;SDS011;17473;52.286;20.930;2023-06-22T07:37:58;12.80;;;8.60;;
30723;SDS011;17473;52.286;20.930;2023-06-22T07:40:30;17.65;;;8.00;;
30723;SDS011;17473;52.286;20.930;2023-06-22T07:42:58;9.55;;;6.10;;
30723;SDS011;17473;52.286;20.930;2023-06-22T07:45:25;7.82;;;5.28;;
30723;SDS011;17473;52.286;20.930;2023-06-22T07:47:52;5.75;;;5.15;;
30723;SDS011;17473;52.286;20.930;2023-06-22T07:50:20;7.40;;;5.55;;
30723;SDS011;17473;52.286;20.930;2023-06-22T07:52:47;11.45;;;5.47;;
30723;SDS011;17473;52.286;20.930;2023-06-22T07:55:14;9.00;;;4.88;;
30723;SDS011;17473;52.286;20.930;2023-06-22T07:57:41;9.30;;;4.70;;
30723;SDS011;17473;52.286;20.930;2023-06-22T08:00:08;7.40;;;4.55;;
30723;SDS011;17473;52.286;20.930;2023-06-22T08:02:41;5.10;;;4.60;;
30723;SDS011;17473;52.286;20.930;2023-06-22T08:05:13;6.93;;;3.88;;
30723;SDS011;17473;52.286;20.930;2023-06-22T08:07:44;5.97;;;4.05;;
30723;SDS011;17473;52.286;20.930;2023-06-22T08:10:13;6.15;;;4.05;;
30723;SDS011;17473;52.286;20.930;2023-06-22T08:12:41;6.20;;;4.10;;
30723;SDS011;17473;52.286;20.930;2023-06-22T08:15:09;4.32;;;3.78;;
30723;SDS011;17473;52.286;20.930;2023-06-22T08:17:37;6.07;;;3.85;;
30723;SDS011;17473;52.286;20.930;2023-06-22T08:20:05;8.68;;;4.28;;
30723;SDS011;17473;52.286;20.930;2023-06-22T08:22:40;6.20;;;3.72;;
30723;SDS011;17473;52.286;20.930;2023-06-22T08:25:08;13.02;;;4.00;;
30723;SDS011;17473;52.286;20.930;2023-06-22T08:27:37;6.30;;;3.92;;
30723;SDS011;17473;52.286;20.930;2023-06-22T08:30:05;5.03;;;3.95;;
30723;SDS011;17473;52.286;20.930;2023-06-22T08:32:34;4.60;;;3.55;;
30723;SDS011;17473;52.286;20.930;2023-06-22T08:35:01;3.88;;;3.53;;
30723;SDS011;17473;52.286;20.930;2023-06-22T08:37:28;4.28;;;3.30;;
30723;SDS011;17473;52.286;20.930;2023-06-22T08:40:03;8.52;;;3.25;;
30723;SDS011;17473;52.286;20.930;2023-06-22T08:42:39;6.75;;;3.47;;
30723;SDS011;17473;52.286;20.930;2023-06-22T08:45:08;3.38;;;2.50;;
30723;SDS011;17473;52.286;20.930;2023-06-22T08:47:36;7.95;;;3.28;;
30723;SDS011;17473;52.286;20.930;2023-06-22T08:50:04;6.20;;;2.72;;
30723;SDS011;17473;52.286;20.930;2023-06-22T08:52:34;4.35;;;3.20;;
30723;SDS011;17473;52.286;20.930;2023-06-22T08:55:02;8.20;;;3.42;;
30723;SDS011;17473;52.286;20.930;2023-06-22T08:57:30;4.47;;;2.75;;
30723;SDS011;17473;52.286;20.930;2023-06-22T08:59:59;8.77;;;5.18;;
30723;SDS011;17473;52.286;20.930;2023-06-22T09:02:26;4.97;;;3.13;;
30723;SDS011;17473;52.286;20.930;2023-06-22T09:04:58;7.32;;;3.25;;
30723;SDS011;17473;52.286;20.930;2023-06-22T09:07:26;3.75;;;2.90;;
30723;SDS011;17473;52.286;20.930;2023-06-22T09:09:53;10.68;;;2.80;;
30723;SDS011;17473;52.286;20.930;2023-06-22T09:12:20;6.88;;;3.17;;
30723;SDS011;17473;52.286;20.930;2023-06-22T09:14:52;4.32;;;2.75;;
30723;SDS011;17473;52.286;20.930;2023-06-22T09:17:19;6.75;;;2.88;;
30723;SDS011;17473;52.286;20.930;2023-06-22T09:19:47;3.30;;;2.70;;
30723;SDS011;17473;52.286;20.930;2023-06-22T09:22:14;4.47;;;2.40;;
30723;SDS011;17473;52.286;20.930;2023-06-22T09:24:42;3.58;;;2.47;;
30723;SDS011;17473;52.286;20.930;2023-06-22T09:27:09;3.17;;;2.88;;
30723;SDS011;17473;52.286;20.930;2023-06-22T09:29:36;7.00;;;2.58;;
30723;SDS011;17473;52.286;20.930;2023-06-22T09:32:03;4.00;;;3.05;;
30723;SDS011;17473;52.286;20.930;2023-06-22T09:34:31;9.35;;;2.22;;
30723;SDS011;17473;52.286;20.930;2023-06-22T09:36:58;7.95;;;2.70;;
30723;SDS011;17473;52.286;20.930;2023-06-22T09:39:29;6.65;;;3.17;;
30723;SDS011;17473;52.286;20.930;2023-06-22T09:41:57;4.88;;;2.75;;
30723;SDS011;17473;52.286;20.930;2023-06-22T09:44:29;3.83;;;3.30;;
30723;SDS011;17473;52.286;20.930;2023-06-22T09:46:56;7.40;;;2.85;;
30723;SDS011;17473;52.286;20.930;2023-06-22T09:49:23;8.52;;;3.10;;
30723;SDS011;17473;52.286;20.930;2023-06-22T09:52:10;5.60;;;3.30;;
30723;SDS011;17473;52.286;20.930;2023-06-22T09:54:38;5.97;;;3.58;;
30723;SDS011;17473;52.286;20.930;2023-06-22T09:57:05;5.05;;;3.42;;
30723;SDS011;17473;52.286;20.930;2023-06-22T09:59:32;6.47;;;3.40;;
30723;SDS011;17473;52.286;20.930;2023-06-22T10:01:59;7.95;;;4.47;;
30723;SDS011;17473;52.286;20.930;2023-06-22T10:04:26;5.22;;;3.50;;
30723;SDS011;17473;52.286;20.930;2023-06-22T10:06:54;4.40;;;3.35;;
30723;SDS011;17473;52.286;20.930;2023-06-22T10:09:21;5.95;;;3.97;;
30723;SDS011;17473;52.286;20.930;2023-06-22T10:11:48;4.78;;;3.47;;
30723;SDS011;17473;52.286;20.930;2023-06-22T10:14:16;5.82;;;3.67;;
30723;SDS011;17473;52.286;20.930;2023-06-22T10:16:43;3.40;;;3.10;;
30723;SDS011;17473;52.286;20.930;2023-06-22T10:19:10;9.18;;;3.40;;
30723;SDS011;17473;52.286;20.930;2023-06-22T10:21:38;10.82;;;3.50;;
30723;SDS011;17473;52.286;20.930;2023-06-22T10:24:05;8.02;;;3.90;;
30723;SDS011;17473;52.286;20.930;2023-06-22T10:26:33;5.15;;;3.80;;
30723;SDS011;17473;52.286;20.930;2023-06-22T10:29:00;6.13;;;3.85;;
30723;SDS011;17473;52.286;20.930;2023-06-22T10:31:34;7.43;;;3.95;;
30723;SDS011;17473;52.286;20.930;2023-06-22T10:34:01;6.43;;;3.78;;
30723;SDS011;17473;52.286;20.930;2023-06-22T10:36:28;8.70;;;3.30;;
30723;SDS011;17473;52.286;20.930;2023-06-22T10:38:55;6.03;;;3.67;;
30723;SDS011;17473;52.286;20.930;2023-06-22T10:41:25;6.03;;;3.78;;
30723;SDS011;17473;52.286;20.930;2023-06-22T10:43:55;11.85;;;3.53;;
30723;SDS011;17473;52.286;20.930;2023-06-22T10:46:26;6.60;;;3.58;;
30723;SDS011;17473;52.286;20.930;2023-06-22T10:48:54;6.18;;;4.25;;
30723;SDS011;17473;52.286;20.930;2023-06-22T10:51:23;7.13;;;3.90;;
30723;SDS011;17473;52.286;20.930;2023-06-22T10:53:51;9.68;;;4.30;;
30723;SDS011;17473;52.286;20.930;2023-06-22T10:56:18;6.95;;;3.80;;
30723;SDS011;17473;52.286;20.930;2023-06-22T10:58:46;5.18;;;3.75;;
30723;SDS011;17473;52.286;20.930;2023-06-22T11:01:13;9.43;;;4.63;;
30723;SDS011;17473;52.286;20.930;2023-06-22T11:04:00;8.98;;;5.60;;
30723;SDS011;17473;52.286;20.930;2023-06-22T11:06:28;9.32;;;4.97;;
30723;SDS011;17473;52.286;20.930;2023-06-22T11:08:55;11.30;;;5.25;;
30723;SDS011;17473;52.286;20.930;2023-06-22T11:11:31;8.75;;;5.07;;
30723;SDS011;17473;52.286;20.930;2023-06-22T11:13:59;6.90;;;4.50;;
30723;SDS011;17473;52.286;20.930;2023-06-22T11:16:26;9.20;;;5.47;;
30723;SDS011;17473;52.286;20.930;2023-06-22T11:18:54;7.70;;;4.82;;
30723;SDS011;17473;52.286;20.930;2023-06-22T11:21:21;9.35;;;5.57;;
30723;SDS011;17473;52.286;20.930;2023-06-22T11:23:48;7.25;;;5.15;;
30723;SDS011;17473;52.286;20.930;2023-06-22T11:26:16;7.03;;;4.45;;
30723;SDS011;17473;52.286;20.930;2023-06-22T11:28:44;5.07;;;4.20;;
30723;SDS011;17473;52.286;20.930;2023-06-22T11:31:11;8.73;;;5.00;;
30723;SDS011;17473;52.286;20.930;2023-06-22T11:33:41;8.95;;;4.60;;
30723;SDS011;17473;52.286;20.930;2023-06-22T11:36:08;5.40;;;3.97;;
30723;SDS011;17473;52.286;20.930;2023-06-22T11:38:35;8.05;;;4.30;;
30723;SDS011;17473;52.286;20.930;2023-06-22T11:41:08;7.03;;;4.57;;
30723;SDS011;17473;52.286;20.930;2023-06-22T11:43:36;17.60;;;6.13;;
30723;SDS011;17473;52.286;20.930;2023-06-22T11:46:03;13.25;;;4.53;;
30723;SDS011;17473;52.286;20.930;2023-06-22T11:48:31;10.85;;;3.97;;
30723;SDS011;17473;52.286;20.930;2023-06-22T11:50:59;6.72;;;4.70;;
30723;SDS011;17473;52.286;20.930;2023-06-22T11:53:27;7.80;;;4.75;;
30723;SDS011;17473;52.286;20.930;2023-06-22T11:55:54;10.98;;;4.97;;
30723;SDS011;17473;52.286;20.930;2023-06-22T11:58:22;8.32;;;4.53;;
30723;SDS011;17473;52.286;20.930;2023-06-22T12:00:49;6.38;;;4.35;;
30723;SDS011;17473;52.286;20.930;2023-06-22T12:03:18;6.55;;;4.07;;
30723;SDS011;17473;52.286;20.930;2023-06-22T12:05:46;9.15;;;4.82;;
30723;SDS011;17473;52.286;20.930;2023-06-22T12:08:13;11.40;;;4.72;;
30723;SDS011;17473;52.286;20.930;2023-06-22T12:10:40;4.88;;;4.25;;
30723;SDS011;17473;52.286;20.930;2023-06-22T12:13:07;5.13;;;3.70;;
30723;SDS011;17473;52.286;20.930;2023-06-22T12:15:35;6.03;;;3.83;;
30723;SDS011;17473;52.286;20.930;2023-06-22T12:18:02;6.55;;;4.05;;
30723;SDS011;17473;52.286;20.930;2023-06-22T12:20:29;9.05;;;4.18;;
30723;SDS011;17473;52.286;20.930;2023-06-22T12:22:57;6.05;;;4.28;;
30723;SDS011;17473;52.286;20.930;2023-06-22T12:25:24;7.07;;;3.60;;
30723;SDS011;17473;52.286;20.930;2023-06-22T12:27:52;6.13;;;3.85;;
30723;SDS011;17473;52.286;20.930;2023-06-22T12:30:20;11.25;;;3.78;;
30723;SDS011;17473;52.286;20.930;2023-06-22T12:32:47;8.60;;;3.97;;
30723;SDS011;17473;52.286;20.930;2023-06-22T12:35:14;6.60;;;4.53;;
30723;SDS011;17473;52.286;20.930;2023-06-22T12:37:42;13.00;;;4.72;;
30723;SDS011;17473;52.286;20.930;2023-06-22T12:40:09;6.20;;;4.20;;
30723;SDS011;17473;52.286;20.930;2023-06-22T12:42:37;7.13;;;4.38;;
30723;SDS011;17473;52.286;20.930;2023-06-22T12:45:04;5.55;;;4.05;;
30723;SDS011;17473;52.286;20.930;2023-06-22T12:47:32;6.38;;;4.35;;
30723;SDS011;17473;52.286;20.930;2023-06-22T12:49:59;6.13;;;4.93;;
30723;SDS011;17473;52.286;20.930;2023-06-22T12:52:27;8.93;;;5.10;;
30723;SDS011;17473;52.286;20.930;2023-06-22T12:54:54;6.22;;;4.95;;
30723;SDS011;17473;52.286;20.930;2023-06-22T12:57:21;8.52;;;5.60;;
30723;SDS011;17473;52.286;20.930;2023-06-22T12:59:49;7.75;;;4.93;;
30723;SDS011;17473;52.286;20.930;2023-06-22T13:02:17;7.13;;;4.88;;
30723;SDS011;17473;52.286;20.930;2023-06-22T13:04:44;14.23;;;5.38;;
30723;SDS011;17473;52.286;20.930;2023-06-22T13:07:11;8.38;;;4.60;;
30723;SDS011;17473;52.286;20.930;2023-06-22T13:09:41;7.45;;;5.38;;
30723;SDS011;17473;52.286;20.930;2023-06-22T13:12:08;8.93;;;5.10;;
30723;SDS011;17473;52.286;20.930;2023-06-22T13:14:35;6.22;;;5.15;;
30723;SDS011;17473;52.286;20.930;2023-06-22T13:17:02;10.35;;;4.93;;
30723;SDS011;17473;52.286;20.930;2023-06-22T13:19:30;7.30;;;5.45;;
30723;SDS011;17473;52.286;20.930;2023-06-22T13:21:59;5.75;;;4.82;;
30723;SDS011;17473;52.286;20.930;2023-06-22T13:24:26;6.32;;;5.00;;
30723;SDS011;17473;52.286;20.930;2023-06-22T13:26:53;7.78;;;4.63;;
30723;SDS011;17473;52.286;20.930;2023-06-22T13:29:21;5.53;;;4.13;;
30723;SDS011;17473;52.286;20.930;2023-06-22T13:31:48;9.20;;;4.80;;
30723;SDS011;17473;52.286;20.930;2023-06-22T13:34:16;6.55;;;4.82;;
30723;SDS011;17473;52.286;20.930;2023-06-22T13:36:43;6.28;;;4.82;;
30723;SDS011;17473;52.286;20.930;2023-06-22T13:39:10;8.68;;;4.90;;
30723;SDS011;17473;52.286;20.930;2023-06-22T13:41:37;6.22;;;4.90;;
30723;SDS011;17473;52.286;20.930;2023-06-22T13:44:04;5.47;;;4.57;;
30723;SDS011;17473;52.286;20.930;2023-06-22T13:46:31;6.07;;;4.80;;
30723;SDS011;17473;52.286;20.930;2023-06-22T13:48:58;6.15;;;4.97;;
30723;SDS011;17473;52.286;20.930;2023-06-22T13:51:25;5.78;;;4.80;;
30723;SDS011;17473;52.286;20.930;2023-06-22T13:53:53;6.53;;;5.15;;
30723;SDS011;17473;52.286;20.930;2023-06-22T13:56:20;8.43;;;5.00;;
30723;SDS011;17473;52.286;20.930;2023-06-22T13:58:48;7.10;;;5.57;;
30723;SDS011;17473;52.286;20.930;2023-06-22T14:01:15;6.90;;;5.25;;
30723;SDS011;17473;52.286;20.930;2023-06-22T14:03:43;9.40;;;5.30;;
30723;SDS011;17473;52.286;20.930;2023-06-22T14:06:13;9.40;;;5.65;;
30723;SDS011;17473;52.286;20.930;2023-06-22T14:08:40;11.98;;;5.57;;
30723;SDS011;17473;52.286;20.930;2023-06-22T14:11:07;8.20;;;4.88;;
30723;SDS011;17473;52.286;20.930;2023-06-22T14:13:35;9.07;;;5.50;;
30723;SDS011;17473;52.286;20.930;2023-06-22T14:16:02;6.30;;;5.18;;
30723;SDS011;17473;52.286;20.930;2023-06-22T14:18:30;13.65;;;4.90;;
30723;SDS011;17473;52.286;20.930;2023-06-22T14:20:58;8.10;;;4.80;;
30723;SDS011;17473;52.286;20.930;2023-06-22T14:23:25;5.88;;;5.03;;
30723;SDS011;17473;52.286;20.930;2023-06-22T14:25:53;5.47;;;4.80;;
30723;SDS011;17473;52.286;20.930;2023-06-22T14:28:20;9.10;;;4.95;;
30723;SDS011;17473;52.286;20.930;2023-06-22T14:30:47;5.47;;;4.78;;
30723;SDS011;17473;52.286;20.930;2023-06-22T14:33:15;5.55;;;4.85;;
30723;SDS011;17473;52.286;20.930;2023-06-22T14:35:43;9.52;;;5.85;;
30723;SDS011;17473;52.286;20.930;2023-06-22T14:38:10;8.25;;;5.45;;